Aérodrome :
LOGIN :

S'inscrire | Disclaimer

   EN    FR    IT 

 










Légende :    VFR   VFR Marginal   IFR   IFR Intensif   IFR Très Intensif
Visi : 
Plafond : 
>= 8 km
>= 3000ft
5 à 8 km
1000 à 3000 ft
1500m à 5 km
500 à 1000 ft
800 à 1500m
200 à 500 ft
< 800m
< 200 ft
Symboles :   Orages  Brouillard  Fortes neiges  Fortes précipitations  Vent > 20 kt
SIGMETs :   Divers  Orages  Givrage  Turbulence  Onde Orograph.  Cendres Volcan.






- Altitude de l'aérodrome : 1830 ft


EBLB - Butgenbach Elsenborn

DERNIER METAR :
  • 200955Z AUTO 08004KT 9999 NCD 11/02 Q1017 BLU

METARs EXPIRÉS :
  • 200925Z AUTO 09004KT 9999 SCT042/// 11/02 Q1017 BLU
  • 200855Z AUTO 01003KT 9999 BKN034/// 10/02 Q1017 BLU
  • 200825Z AUTO VRB02KT 9999 FEW034/// 11/03 Q1017 BLU
  • 200755Z AUTO VRB01KT 9999 NCD 09/02 Q1017 BLU
  • 200725Z AUTO VRB01KT 9999 NCD 08/05 Q1017 BLU
  • 200722Z AUTO VRB01KT 9000 NCD 07/05 Q1017 BLU
  • 200655Z AUTO VRB01KT 5000 NCD 05/04 Q1017 WHT

Prévision TAF périmée.



MET'MAP, la Météo Aéronautique d'un coup d'oeil ! - Copyright ORBIFLY Décembre 2007 - Disclaimer

ORBIFLY MET'MAP TEAM :

Programmation & Développement : Alexandra Zaïnal
Sur une idée originale de : Baudouin d'Aumeries
Assistance à la programmation : Marc-Olivier Méhu
Soutien technique & logistique : Manuel Goepfert

Contact : metmap@orbifly.com




SOURCES & CREDITS :

   NOAA